Time;durP1;ratioP1;P1;durP2;ratioP2;P2;SDS_P1;SDS_P2;PMS_P1;PMS_P2;Temp;Humidity;BMP_temperature;BMP_pressure;BME280_temperature;BME280_humidity;BME280_pressure;Samples;Min_cycle;Max_cycle;Signal;HPM_P1;HPM_P2
2021/09/23 00:00:46;;;;;;;19.52;10.45;;;18.80;79.70;;;;;;5013008;28;20029;-74
2021/09/23 00:03:20;;;;;;;20.75;11.07;;;18.70;79.50;;;;;;5013130;28;20101;-76
2021/09/23 00:05:45;;;;;;;18.25;10.30;;;18.80;80.10;;;;;;5013377;28;20061;-75
2021/09/23 00:08:11;;;;;;;19.15;10.13;;;18.80;80.00;;;;;;5014213;28;20188;-74
2021/09/23 00:10:39;;;;;;;18.92;10.57;;;18.70;79.90;;;;;;5012882;28;20104;-76
2021/09/23 00:13:06;;;;;;;18.15;10.25;;;18.70;79.30;;;;;;5013000;28;20025;-75
2021/09/23 00:15:33;;;;;;;19.70;10.38;;;18.70;79.10;;;;;;5013178;28;20066;-76
2021/09/23 00:18:03;;;;;;;19.50;9.77;;;18.70;79.70;;;;;;5014446;28;20092;-76
2021/09/23 00:20:31;;;;;;;21.33;10.68;;;18.80;79.80;;;;;;5012805;28;20069;-76
2021/09/23 00:22:57;;;;;;;19.42;9.85;;;18.70;79.10;;;;;;5012969;28;20376;-74
2021/09/23 00:25:26;;;;;;;19.08;10.10;;;18.70;79.40;;;;;;5013140;28;20037;-74
2021/09/23 00:27:53;;;;;;;18.45;9.27;;;18.70;79.40;;;;;;5014581;28;20022;-74
2021/09/23 00:30:18;;;;;;;16.75;8.93;;;18.70;79.20;;;;;;5012603;28;20530;-76
2021/09/23 00:32:44;;;;;;;19.23;9.10;;;18.70;79.40;;;;;;5011957;28;20026;-76
2021/09/23 00:35:10;;;;;;;19.45;9.75;;;18.70;79.00;;;;;;5011863;28;20021;-76
2021/09/23 00:37:36;;;;;;;17.00;9.55;;;18.70;79.00;;;;;;5013207;28;20038;-77
2021/09/23 00:40:08;;;;;;;21.10;9.88;;;18.70;79.30;;;;;;5011853;28;20028;-76
2021/09/23 00:42:34;;;;;;;14.93;9.13;;;18.70;79.50;;;;;;5012808;28;20109;-77
2021/09/23 00:45:01;;;;;;;17.48;9.20;;;18.70;79.20;;;;;;5012009;28;20483;-76
2021/09/23 00:47:27;;;;;;;16.00;8.60;;;18.70;79.40;;;;;;5013589;28;20034;-78
2021/09/23 00:49:53;;;;;;;18.35;9.07;;;18.70;80.20;;;;;;5012797;28;20606;-78
2021/09/23 00:52:19;;;;;;;15.40;8.50;;;18.70;79.70;;;;;;5013032;28;20029;-77
2021/09/23 00:54:46;;;;;;;16.38;9.20;;;18.70;79.30;;;;;;5013020;28;20014;-75
2021/09/23 00:57:15;;;;;;;16.00;8.82;;;18.70;79.50;;;;;;5012007;28;20100;-74
2021/09/23 00:59:41;;;;;;;16.15;9.30;;;18.70;79.70;;;;;;5011896;28;20036;-76
2021/09/23 01:02:07;;;;;;;19.60;9.68;;;18.70;79.50;;;;;;5012783;28;20112;-75
2021/09/23 01:04:32;;;;;;;21.05;9.02;;;18.60;79.30;;;;;;5011845;28;20045;-75
2021/09/23 01:06:57;;;;;;;19.55;9.38;;;18.70;79.30;;;;;;5011527;28;20030;-76
2021/09/23 01:09:23;;;;;;;14.52;9.00;;;18.70;79.60;;;;;;5011812;28;20022;-77
2021/09/23 01:11:49;;;;;;;17.88;9.13;;;18.70;79.30;;;;;;5011442;28;20076;-75
2021/09/23 01:14:14;;;;;;;13.82;8.20;;;18.70;79.10;;;;;;5011634;28;20056;-76
2021/09/23 01:16:40;;;;;;;15.73;9.52;;;18.70;79.50;;;;;;5011815;28;20022;-77
2021/09/23 01:19:05;;;;;;;19.13;9.48;;;18.70;79.10;;;;;;5011757;28;20049;-77
2021/09/23 01:21:31;;;;;;;15.57;9.30;;;18.70;79.10;;;;;;5011511;28;20037;-77
2021/09/23 01:23:57;;;;;;;16.58;9.38;;;18.70;79.20;;;;;;5011437;28;20021;-76
2021/09/23 01:26:29;;;;;;;15.43;8.82;;;18.70;79.00;;;;;;5011417;28;20476;-74
2021/09/23 01:28:55;;;;;;;16.55;8.88;;;18.60;79.10;;;;;;5012829;28;20057;-77
2021/09/23 01:31:21;;;;;;;15.80;8.60;;;18.70;79.30;;;;;;5011289;28;20040;-77
2021/09/23 01:33:47;;;;;;;15.10;8.13;;;18.70;79.20;;;;;;5011317;28;20025;-76
2021/09/23 01:36:13;;;;;;;15.82;8.63;;;18.70;79.20;;;;;;5011462;28;20365;-76
2021/09/23 01:38:38;;;;;;;14.50;8.23;;;18.60;79.00;;;;;;5011233;28;20080;-76
2021/09/23 01:41:04;;;;;;;13.63;8.38;;;18.70;79.50;;;;;;5010910;28;20535;-76
2021/09/23 01:43:29;;;;;;;15.85;9.48;;;18.70;79.00;;;;;;5011311;28;20503;-76
2021/09/23 01:45:55;;;;;;;15.35;8.85;;;18.70;79.10;;;;;;5011375;28;20030;-76
2021/09/23 01:48:21;;;;;;;14.88;8.35;;;18.70;78.90;;;;;;5012584;28;20030;-76
2021/09/23 01:50:46;;;;;;;14.63;8.00;;;18.70;79.00;;;;;;5012346;28;20104;-76
2021/09/23 01:53:12;;;;;;;14.93;9.00;;;18.70;79.10;;;;;;5012604;28;20028;-76
2021/09/23 01:55:37;;;;;;;15.43;8.80;;;18.70;79.20;;;;;;5010916;28;20022;-77
2021/09/23 01:58:03;;;;;;;14.15;8.55;;;18.70;79.00;;;;;;5011278;28;20036;-76
2021/09/23 02:00:28;;;;;;;14.27;7.95;;;18.60;79.20;;;;;;5011095;28;20033;-76
2021/09/23 02:02:55;;;;;;;14.32;8.75;;;18.70;78.90;;;;;;5014819;28;20132;-76
2021/09/23 02:05:21;;;;;;;15.38;8.70;;;18.60;78.90;;;;;;5014980;28;20133;-76
2021/09/23 02:07:47;;;;;;;12.98;7.90;;;18.70;79.10;;;;;;5016101;28;20109;-77
2021/09/23 02:10:13;;;;;;;15.35;8.65;;;18.70;79.10;;;;;;5015113;28;20029;-76
2021/09/23 02:12:39;;;;;;;14.80;7.95;;;18.60;78.90;;;;;;5014620;28;20018;-76
2021/09/23 02:15:06;;;;;;;12.20;7.50;;;18.60;78.90;;;;;;5014601;28;20478;-76
2021/09/23 02:17:31;;;;;;;12.57;8.25;;;18.60;78.90;;;;;;5014531;28;20041;-76
2021/09/23 02:19:57;;;;;;;12.35;7.60;;;18.60;79.00;;;;;;5014585;28;20022;-76
2021/09/23 02:22:24;;;;;;;13.68;7.95;;;18.60;79.00;;;;;;5014504;28;20487;-76
2021/09/23 02:24:50;;;;;;;12.60;7.63;;;18.60;78.90;;;;;;5014192;28;20111;-77
2021/09/23 02:27:16;;;;;;;13.25;7.93;;;18.60;78.80;;;;;;5014600;28;20037;-76
2021/09/23 02:29:42;;;;;;;14.68;8.20;;;18.60;79.00;;;;;;5015567;28;20026;-75
2021/09/23 02:32:08;;;;;;;13.63;8.02;;;18.60;79.10;;;;;;5014919;28;20018;-75
2021/09/23 02:34:34;;;;;;;12.40;8.02;;;18.60;79.20;;;;;;5015021;28;20029;-76
2021/09/23 02:37:00;;;;;;;13.38;8.13;;;18.60;78.80;;;;;;5015208;28;20026;-75
2021/09/23 02:39:26;;;;;;;12.95;7.65;;;18.60;78.80;;;;;;5014717;28;20124;-76
2021/09/23 02:41:52;;;;;;;15.27;7.90;;;18.60;78.90;;;;;;5014789;28;20115;-76
2021/09/23 02:44:18;;;;;;;14.35;8.25;;;18.60;78.80;;;;;;5015950;28;20026;-75
2021/09/23 02:46:44;;;;;;;11.77;7.68;;;18.60;78.90;;;;;;5014987;28;20068;-75
2021/09/23 02:49:10;;;;;;;13.60;8.45;;;18.60;78.90;;;;;;5014879;28;20046;-76
2021/09/23 02:51:35;;;;;;;13.57;7.72;;;18.60;78.90;;;;;;5014657;28;20072;-76
2021/09/23 02:54:01;;;;;;;12.77;7.68;;;18.60;78.80;;;;;;5015986;28;20045;-74
2021/09/23 02:56:27;;;;;;;12.65;7.70;;;18.60;78.90;;;;;;5009818;28;20021;-76
2021/09/23 02:58:52;;;;;;;12.93;7.78;;;18.60;78.80;;;;;;5007463;28;20475;-75
2021/09/23 03:01:19;;;;;;;11.38;7.03;;;18.50;79.30;;;;;;5014219;28;20515;-75
2021/09/23 03:03:45;;;;;;;12.80;7.68;;;18.50;78.70;;;;;;5015052;28;20457;-76
2021/09/23 03:06:11;;;;;;;14.45;8.18;;;18.60;78.80;;;;;;5016789;28;20034;-75
2021/09/23 03:08:37;;;;;;;13.55;7.68;;;18.60;78.60;;;;;;5016455;28;20108;-76
2021/09/23 03:11:03;;;;;;;12.68;7.85;;;18.50;78.60;;;;;;5015035;28;20065;-75
2021/09/23 03:13:29;;;;;;;12.60;7.80;;;18.60;78.60;;;;;;5015937;28;20081;-75
2021/09/23 03:15:55;;;;;;;12.05;8.05;;;18.60;78.60;;;;;;5015292;28;20033;-75
2021/09/23 03:18:21;;;;;;;12.85;8.00;;;18.60;78.60;;;;;;5015160;28;20088;-75
2021/09/23 03:20:47;;;;;;;14.45;8.05;;;18.50;78.60;;;;;;5014825;28;20112;-76
2021/09/23 03:23:13;;;;;;;12.85;8.02;;;18.50;78.60;;;;;;5015670;28;20053;-75
2021/09/23 03:25:39;;;;;;;12.60;7.97;;;18.50;78.60;;;;;;5015184;28;20033;-75
2021/09/23 03:28:05;;;;;;;12.57;7.75;;;18.60;78.50;;;;;;5015002;28;20030;-76
2021/09/23 03:30:32;;;;;;;13.10;8.10;;;18.50;78.60;;;;;;5015981;28;20030;-75
2021/09/23 03:32:58;;;;;;;10.73;6.80;;;18.50;78.50;;;;;;5016259;28;20387;-75
2021/09/23 03:35:23;;;;;;;11.50;7.55;;;18.50;78.40;;;;;;5014544;28;20108;-77
2021/09/23 03:37:49;;;;;;;12.85;8.43;;;18.50;78.50;;;;;;5014900;28;20120;-75
2021/09/23 03:40:15;;;;;;;13.48;7.85;;;18.50;78.50;;;;;;5014755;28;20122;-76
2021/09/23 03:42:41;;;;;;;12.90;8.13;;;18.50;78.40;;;;;;5014421;28;20096;-77
2021/09/23 03:45:08;;;;;;;11.98;8.00;;;18.50;78.60;;;;;;5016269;28;20025;-75
2021/09/23 03:47:34;;;;;;;13.18;8.38;;;18.50;78.60;;;;;;5014631;28;20112;-75
2021/09/23 03:50:02;;;;;;;12.38;8.10;;;18.50;78.40;;;;;;5007806;28;20033;-75
2021/09/23 03:52:27;;;;;;;12.68;8.32;;;18.50;78.40;;;;;;5010789;28;20033;-76
2021/09/23 03:54:53;;;;;;;11.77;7.35;;;18.50;78.50;;;;;;5015862;28;20018;-76
2021/09/23 03:57:19;;;;;;;12.55;7.55;;;18.50;78.40;;;;;;5015600;28;20108;-76
2021/09/23 03:59:46;;;;;;;12.15;7.38;;;18.50;78.40;;;;;;5014966;28;20030;-76
2021/09/23 04:02:12;;;;;;;14.45;9.15;;;18.50;78.40;;;;;;5013397;28;20041;-76
2021/09/23 04:04:38;;;;;;;13.02;8.18;;;18.50;78.40;;;;;;5013890;28;20084;-76
2021/09/23 04:07:03;;;;;;;12.60;7.85;;;18.50;78.20;;;;;;5014062;28;20022;-75
2021/09/23 04:09:29;;;;;;;12.35;7.88;;;18.50;78.30;;;;;;5014011;28;20036;-75
2021/09/23 04:11:54;;;;;;;12.07;7.70;;;18.60;78.20;;;;;;5014986;28;20450;-76
2021/09/23 04:14:20;;;;;;;12.32;7.88;;;18.50;78.20;;;;;;5013959;28;20033;-75
2021/09/23 04:16:46;;;;;;;12.45;8.07;;;18.50;78.20;;;;;;5015586;28;20026;-75
2021/09/23 04:19:11;;;;;;;11.80;7.78;;;18.50;78.10;;;;;;5015464;28;20094;-75
2021/09/23 04:21:37;;;;;;;12.25;8.27;;;18.50;78.10;;;;;;5013818;28;20634;-76
2021/09/23 04:24:03;;;;;;;12.98;7.82;;;18.50;78.10;;;;;;5013653;28;20077;-76
2021/09/23 04:26:28;;;;;;;12.73;8.25;;;18.50;78.00;;;;;;5013075;28;20028;-76
2021/09/23 04:28:54;;;;;;;12.35;8.88;;;18.50;77.90;;;;;;5014518;28;20104;-76
2021/09/23 04:31:19;;;;;;;12.40;7.72;;;18.50;78.00;;;;;;5012851;28;20045;-76
2021/09/23 04:33:45;;;;;;;12.55;8.02;;;18.50;77.90;;;;;;5014345;28;20072;-76
2021/09/23 04:36:11;;;;;;;11.32;8.23;;;18.50;77.90;;;;;;5014154;28;20053;-75
2021/09/23 04:38:36;;;;;;;12.82;8.52;;;18.60;78.00;;;;;;5012911;28;20104;-76
2021/09/23 04:41:02;;;;;;;13.23;8.57;;;18.50;77.80;;;;;;5012864;28;20022;-76
2021/09/23 04:43:27;;;;;;;12.18;8.15;;;18.50;77.80;;;;;;5013308;28;20030;-76
2021/09/23 04:45:53;;;;;;;12.23;8.90;;;18.60;78.00;;;;;;5008899;28;20029;-76
2021/09/23 04:48:19;;;;;;;15.05;9.00;;;18.60;77.70;;;;;;5000429;28;20033;-77
2021/09/23 04:50:45;;;;;;;12.90;8.52;;;18.70;77.30;;;;;;5009375;28;20129;-76
2021/09/23 04:53:10;;;;;;;14.32;8.48;;;18.60;77.10;;;;;;5012578;28;20148;-77
2021/09/23 04:55:36;;;;;;;14.63;9.02;;;18.60;77.40;;;;;;5022101;28;20653;-76
2021/09/23 04:58:03;;;;;;;13.20;8.57;;;18.60;77.40;;;;;;5006533;28;20033;-77
2021/09/23 05:00:29;;;;;;;15.18;9.07;;;18.60;77.20;;;;;;5006606;28;20034;-77
2021/09/23 05:02:54;;;;;;;15.27;9.60;;;18.60;77.60;;;;;;5003679;28;20404;-79
2021/09/23 05:05:20;;;;;;;14.93;8.75;;;18.60;77.70;;;;;;5006351;28;20037;-77
2021/09/23 05:07:45;;;;;;;14.27;9.02;;;18.50;77.80;;;;;;5008159;28;20033;-77
2021/09/23 05:10:11;;;;;;;13.60;9.10;;;18.60;77.70;;;;;;5008584;28;20036;-76
2021/09/23 05:12:37;;;;;;;11.85;8.23;;;18.60;77.50;;;;;;5007286;28;20032;-76
2021/09/23 05:15:03;;;;;;;13.48;8.40;;;18.60;77.70;;;;;;5005250;28;20098;-75
2021/09/23 05:17:28;;;;;;;14.27;8.48;;;18.60;77.60;;;;;;5004968;28;20530;-76
2021/09/23 05:19:56;;;;;;;20.52;10.75;;;18.60;77.80;;;;;;5006383;28;20037;-75
2021/09/23 05:22:26;;;;;;;18.52;12.13;;;18.50;77.10;;;;;;5007361;28;20021;-77
2021/09/23 05:24:53;;;;;;;23.00;13.05;;;18.50;76.20;;;;;;5007283;28;20030;-75
2021/09/23 05:27:18;;;;;;;22.73;13.32;;;18.50;75.90;;;;;;5008683;28;20069;-78
2021/09/23 05:29:44;;;;;;;18.25;11.93;;;18.50;76.10;;;;;;5009454;28;20501;-76
2021/09/23 05:32:09;;;;;;;19.42;11.93;;;18.50;76.30;;;;;;5009085;28;20036;-77
2021/09/23 05:34:35;;;;;;;19.63;11.88;;;18.50;76.30;;;;;;5009172;28;20026;-76
2021/09/23 05:37:00;;;;;;;18.95;11.95;;;18.50;76.20;;;;;;5012577;28;20391;-77
2021/09/23 05:39:26;;;;;;;16.80;11.70;;;18.50;76.30;;;;;;5013330;28;20065;-77
2021/09/23 05:41:52;;;;;;;18.20;10.50;;;18.50;76.30;;;;;;5012081;28;20022;-77
2021/09/23 05:44:23;;;;;;;16.73;11.30;;;18.50;76.60;;;;;;5009897;28;20100;-75
2021/09/23 05:46:52;;;;;;;17.58;11.50;;;18.50;75.90;;;;;;5009109;28;20026;-75
2021/09/23 05:49:19;;;;;;;16.83;11.25;;;18.50;75.90;;;;;;5008874;28;20499;-76
2021/09/23 05:51:46;;;;;;;18.48;12.45;;;18.50;75.80;;;;;;5008956;28;20050;-76
2021/09/23 05:54:11;;;;;;;18.08;10.55;;;18.50;75.60;;;;;;5009753;28;20022;-76
2021/09/23 05:56:37;;;;;;;16.50;10.63;;;18.50;76.20;;;;;;5010551;28;20037;-76
2021/09/23 05:59:02;;;;;;;17.33;10.75;;;18.60;75.90;;;;;;5010938;28;20838;-76
2021/09/23 06:01:28;;;;;;;18.52;11.93;;;18.60;75.50;;;;;;5011661;28;20030;-76
2021/09/23 06:03:54;;;;;;;17.95;11.05;;;18.60;76.10;;;;;;5012036;28;20124;-76
2021/09/23 06:06:19;;;;;;;21.52;11.25;;;18.70;76.40;;;;;;5011729;28;20089;-78
2021/09/23 06:08:45;;;;;;;20.52;11.73;;;18.80;76.10;;;;;;5013160;28;20030;-77
2021/09/23 06:11:10;;;;;;;26.10;14.48;;;18.80;75.00;;;;;;5011145;28;20022;-76
2021/09/23 06:13:36;;;;;;;23.35;14.02;;;18.90;74.90;;;;;;5078818;23;20080;-75
2021/09/23 06:16:02;;;;;;;19.98;12.48;;;18.90;75.30;;;;;;5022278;28;20026;-76
2021/09/23 06:18:27;;;;;;;21.10;12.35;;;18.90;75.60;;;;;;5017551;28;20025;-76
2021/09/23 06:20:53;;;;;;;25.10;11.80;;;19.00;74.60;;;;;;5020159;28;20454;-74
2021/09/23 06:23:18;;;;;;;20.52;11.70;;;19.00;74.40;;;;;;5040215;28;20029;-75
2021/09/23 06:25:44;;;;;;;20.73;11.63;;;19.00;74.90;;;;;;5017696;28;20679;-75
2021/09/23 06:28:11;;;;;;;19.35;11.18;;;19.00;74.70;;;;;;5016959;28;20036;-75
2021/09/23 06:30:37;;;;;;;16.58;11.18;;;18.90;74.70;;;;;;5016023;28;20468;-74
2021/09/23 06:33:03;;;;;;;20.85;11.32;;;18.80;74.90;;;;;;5015489;28;20025;-74
2021/09/23 06:35:29;;;;;;;20.38;11.38;;;18.80;75.00;;;;;;5016749;28;20027;-74
2021/09/23 06:37:54;;;;;;;18.52;10.82;;;18.80;75.20;;;;;;5016217;28;20033;-75
2021/09/23 06:40:20;;;;;;;17.52;10.77;;;18.80;75.00;;;;;;5016778;28;20090;-74
2021/09/23 06:42:46;;;;;;;15.20;9.77;;;18.80;75.10;;;;;;5016692;28;20025;-74
2021/09/23 06:45:12;;;;;;;16.92;10.57;;;18.80;75.10;;;;;;5034550;28;20032;-74
2021/09/23 06:47:37;;;;;;;16.33;9.95;;;18.80;75.00;;;;;;5033625;28;20030;-74
2021/09/23 06:50:03;;;;;;;15.50;9.88;;;18.80;74.80;;;;;;5034423;28;20025;-75
2021/09/23 06:52:29;;;;;;;16.98;10.20;;;18.90;74.70;;;;;;5016350;28;20022;-74
2021/09/23 06:54:55;;;;;;;20.75;10.15;;;18.90;74.60;;;;;;5016462;28;20031;-74
2021/09/23 06:57:20;;;;;;;17.52;10.00;;;18.90;74.60;;;;;;5016676;28;20029;-74
2021/09/23 06:59:46;;;;;;;17.52;9.75;;;18.90;74.30;;;;;;5034232;28;20022;-74
2021/09/23 07:02:11;;;;;;;15.52;10.05;;;18.90;74.10;;;;;;5016246;28;20035;-75
2021/09/23 07:04:37;;;;;;;15.75;9.60;;;18.90;74.20;;;;;;5016455;28;20034;-74
2021/09/23 07:07:03;;;;;;;18.48;9.48;;;18.90;73.90;;;;;;5034195;28;20064;-73
2021/09/23 07:09:28;;;;;;;20.73;9.15;;;19.00;74.40;;;;;;5034046;28;20029;-74
2021/09/23 07:11:55;;;;;;;20.70;11.73;;;19.00;73.50;;;;;;5033886;28;20026;-73
2021/09/23 07:14:21;;;;;;;20.83;13.35;;;19.00;72.10;;;;;;5015848;28;20494;-73
2021/09/23 07:16:46;;;;;;;21.25;12.90;;;18.90;70.80;;;;;;5016107;28;20044;-74
2021/09/23 07:19:12;;;;;;;21.63;13.57;;;18.90;70.90;;;;;;5016193;28;20026;-74
2021/09/23 07:21:38;;;;;;;19.20;12.55;;;18.90;70.70;;;;;;5033694;28;20036;-73
2021/09/23 07:24:04;;;;;;;17.10;10.60;;;18.90;71.00;;;;;;5033729;28;20390;-74
2021/09/23 07:26:31;;;;;;;14.88;10.27;;;18.90;71.90;;;;;;5016115;28;20028;-74
2021/09/23 07:28:57;;;;;;;15.80;10.10;;;18.90;72.10;;;;;;5033664;28;20412;-74
2021/09/23 07:31:23;;;;;;;16.45;10.90;;;18.90;72.20;;;;;;5033171;28;20394;-75
2021/09/23 07:33:50;;;;;;;21.20;12.88;;;19.00;72.40;;;;;;5033570;28;20022;-74
2021/09/23 07:36:16;;;;;;;21.77;13.27;;;19.00;75.20;;;;;;5033704;28;20621;-74
2021/09/23 07:38:42;;;;;;;24.30;14.02;;;18.90;74.50;;;;;;5033546;28;20402;-74
2021/09/23 07:41:07;;;;;;;21.58;13.25;;;18.90;73.80;;;;;;5015348;28;20029;-75
2021/09/23 07:43:33;;;;;;;20.92;15.30;;;18.80;72.60;;;;;;5033508;28;20083;-74
2021/09/23 07:45:58;;;;;;;20.67;13.80;;;18.80;71.40;;;;;;5033360;28;20483;-75
2021/09/23 07:48:24;;;;;;;21.13;14.55;;;18.80;72.00;;;;;;5015529;28;20479;-75
2021/09/23 07:50:50;;;;;;;20.90;14.68;;;18.80;70.80;;;;;;5015428;28;20056;-75
2021/09/23 07:53:16;;;;;;;19.40;14.38;;;18.80;70.50;;;;;;5033184;28;20438;-74
2021/09/23 07:55:41;;;;;;;22.15;14.57;;;18.80;70.30;;;;;;5033235;28;20032;-74
2021/09/23 07:58:07;;;;;;;20.73;14.63;;;18.80;70.30;;;;;;5033178;28;20398;-74
2021/09/23 08:00:32;;;;;;;20.50;15.23;;;18.80;70.20;;;;;;5031825;28;20518;-75
2021/09/23 08:02:58;;;;;;;20.40;14.27;;;18.90;69.70;;;;;;5015311;28;20033;-73
2021/09/23 08:05:28;;;;;;;17.30;13.77;;;18.90;69.40;;;;;;5015371;28;20104;-74
2021/09/23 08:07:53;;;;;;;18.73;13.57;;;18.80;69.60;;;;;;5015133;28;20030;-75
2021/09/23 08:10:19;;;;;;;21.00;14.20;;;18.80;70.40;;;;;;5015011;28;20556;-74
2021/09/23 08:12:45;;;;;;;18.88;13.43;;;18.80;69.90;;;;;;5032631;28;20032;-74
2021/09/23 08:15:12;;;;;;;20.27;14.35;;;18.80;70.10;;;;;;5015089;28;20104;-74
2021/09/23 08:17:37;;;;;;;16.55;13.00;;;18.80;70.00;;;;;;5032868;28;20026;-74
2021/09/23 08:20:04;;;;;;;17.45;13.70;;;18.80;70.00;;;;;;5032781;28;20052;-75
2021/09/23 08:22:29;;;;;;;18.83;14.07;;;18.80;69.60;;;;;;5032447;28;20034;-74
2021/09/23 08:24:55;;;;;;;18.05;13.07;;;18.70;69.70;;;;;;5014773;28;20076;-74
2021/09/23 08:27:21;;;;;;;17.25;13.05;;;18.70;69.90;;;;;;5014863;28;20033;-74
2021/09/23 08:29:46;;;;;;;18.33;12.38;;;18.70;70.00;;;;;;5014892;28;20061;-74
2021/09/23 08:32:17;;;;;;;17.30;12.75;;;18.80;69.60;;;;;;5032009;28;20437;-75
2021/09/23 08:34:43;;;;;;;16.05;12.55;;;18.80;69.40;;;;;;5032363;28;20018;-74
2021/09/23 08:37:08;;;;;;;17.30;12.48;;;18.90;69.10;;;;;;5014580;28;20025;-74
2021/09/23 08:39:34;;;;;;;17.35;12.45;;;18.90;68.90;;;;;;5014864;28;20021;-74
2021/09/23 08:41:59;;;;;;;18.10;12.40;;;18.90;68.60;;;;;;5014583;28;20060;-74
2021/09/23 08:44:25;;;;;;;18.88;13.40;;;19.00;68.60;;;;;;5014684;28;20025;-74
2021/09/23 08:46:51;;;;;;;15.80;11.50;;;19.00;68.30;;;;;;5032225;28;20018;-74
2021/09/23 08:49:16;;;;;;;17.13;11.48;;;19.00;68.30;;;;;;5032189;28;20079;-74
2021/09/23 08:51:42;;;;;;;16.85;12.10;;;19.00;68.20;;;;;;5014112;28;20107;-74
2021/09/23 08:54:08;;;;;;;17.30;11.98;;;19.10;68.10;;;;;;5032159;28;20024;-74
2021/09/23 08:56:34;;;;;;;16.17;11.45;;;19.10;67.70;;;;;;5014481;28;20013;-74
2021/09/23 08:59:00;;;;;;;17.88;11.05;;;19.00;68.10;;;;;;5014376;28;20025;-75
2021/09/23 09:01:32;;;;;;;23.33;11.93;;;19.10;68.30;;;;;;5014198;28;20032;-74
2021/09/23 09:04:02;;;;;;;16.85;10.93;;;19.20;68.80;;;;;;5031899;28;20040;-75
2021/09/23 09:06:28;;;;;;;14.68;10.40;;;19.30;68.60;;;;;;5031975;28;20025;-75
2021/09/23 09:08:54;;;;;;;16.58;10.13;;;19.50;68.40;;;;;;5014150;28;20029;-74
2021/09/23 09:11:20;;;;;;;17.13;9.18;;;19.50;68.50;;;;;;5013566;28;20040;-74
2021/09/23 09:13:48;;;;;;;16.88;9.65;;;19.50;68.70;;;;;;5031697;28;20037;-74
2021/09/23 09:16:17;;;;;;;15.25;8.85;;;19.50;68.80;;;;;;5014186;28;20022;-74
2021/09/23 09:18:44;;;;;;;15.23;8.98;;;19.60;68.90;;;;;;5031769;28;20094;-74
2021/09/23 09:21:13;;;;;;;16.17;8.27;;;19.60;68.90;;;;;;5013781;28;20409;-74
2021/09/23 09:23:52;;;;;;;18.88;8.60;;;19.60;68.90;;;;;;5014016;28;20510;-74
2021/09/23 09:26:40;;;;;;;12.80;8.80;;;19.60;68.90;;;;;;5031881;28;20022;-75
2021/09/23 09:29:08;;;;;;;14.85;8.35;;;19.60;69.20;;;;;;5014038;28;20477;-74
2021/09/23 09:31:36;;;;;;;12.75;8.07;;;19.60;69.40;;;;;;5013533;28;20125;-73
2021/09/23 09:34:05;;;;;;;12.60;7.38;;;19.60;69.70;;;;;;5031626;28;20021;-76
2021/09/23 09:36:39;;;;;;;28.92;8.63;;;19.60;69.80;;;;;;5014033;28;20025;-74
2021/09/23 09:39:10;;;;;;;20.63;7.88;;;19.60;70.20;;;;;;5031839;28;20022;-75
2021/09/23 09:41:38;;;;;;;15.25;7.78;;;19.70;69.60;;;;;;5013852;28;20022;-74
2021/09/23 09:44:08;;;;;;;14.15;7.53;;;19.70;69.40;;;;;;5031690;28;20029;-75
2021/09/23 09:46:46;;;;;;;12.03;7.27;;;19.70;69.50;;;;;;5013982;28;20034;-76
2021/09/23 09:49:12;;;;;;;17.08;7.80;;;19.80;69.80;;;;;;5014138;28;20292;-75
2021/09/23 09:51:47;;;;;;;11.40;7.13;;;19.70;69.50;;;;;;5013555;28;20033;-74
2021/09/23 09:54:15;;;;;;;17.33;7.28;;;19.70;69.90;;;;;;5013845;28;20022;-75
2021/09/23 09:56:44;;;;;;;10.55;6.05;;;19.60;70.00;;;;;;5013815;28;20025;-75
2021/09/23 09:59:18;;;;;;;11.57;6.65;;;19.60;70.20;;;;;;5013868;28;20124;-76
2021/09/23 10:01:56;;;;;;;10.80;6.13;;;19.60;70.50;;;;;;5030969;28;20118;-75
2021/09/23 10:04:23;;;;;;;12.25;7.18;;;19.60;70.40;;;;;;5031286;28;20026;-74
2021/09/23 10:06:49;;;;;;;13.55;6.65;;;19.60;70.30;;;;;;5031309;28;20025;-75
2021/09/23 10:09:16;;;;;;;14.23;6.95;;;19.60;70.40;;;;;;5013579;28;20064;-76
2021/09/23 10:11:47;;;;;;;11.38;6.30;;;19.60;70.40;;;;;;5013304;28;20025;-74
2021/09/23 10:14:14;;;;;;;9.85;5.63;;;19.60;70.40;;;;;;5031345;28;20036;-74
2021/09/23 10:16:41;;;;;;;10.48;5.70;;;19.60;70.50;;;;;;5031282;28;20033;-74
2021/09/23 10:19:08;;;;;;;12.23;6.65;;;19.60;70.50;;;;;;5013499;28;20121;-74
2021/09/23 10:21:35;;;;;;;9.32;5.78;;;19.70;70.40;;;;;;5013092;28;20471;-75
2021/09/23 10:24:02;;;;;;;11.50;6.32;;;19.70;70.80;;;;;;5015479;28;20032;-75
2021/09/23 10:26:30;;;;;;;11.40;5.75;;;19.70;70.40;;;;;;5016678;28;20028;-76
2021/09/23 10:28:59;;;;;;;12.25;5.53;;;19.80;70.10;;;;;;5015860;28;20022;-75
2021/09/23 10:31:35;;;;;;;10.52;5.43;;;19.70;70.30;;;;;;5032719;28;20017;-75
2021/09/23 10:34:03;;;;;;;10.60;5.75;;;19.80;70.60;;;;;;5032749;28;20025;-75
2021/09/23 10:36:32;;;;;;;11.85;5.50;;;19.80;70.80;;;;;;5015369;28;20045;-75
2021/09/23 10:39:00;;;;;;;9.63;5.38;;;19.80;70.60;;;;;;5032722;28;20034;-75
2021/09/23 10:41:27;;;;;;;10.05;5.28;;;19.80;70.50;;;;;;5014899;28;20025;-75
2021/09/23 10:43:55;;;;;;;9.55;5.03;;;19.80;70.70;;;;;;5033103;28;20033;-75
2021/09/23 10:46:24;;;;;;;10.48;5.00;;;19.80;70.50;;;;;;5016742;28;20048;-75
2021/09/23 10:48:52;;;;;;;9.98;4.97;;;19.80;70.60;;;;;;5034485;28;20060;-75
2021/09/23 10:51:18;;;;;;;8.10;4.82;;;19.70;71.00;;;;;;5034115;28;20080;-75
2021/09/23 10:54:10;;;;;;;8.30;4.78;;;19.70;71.00;;;;;;5016658;28;20029;-75
2021/09/23 10:56:35;;;;;;;8.68;5.20;;;19.70;70.90;;;;;;5031473;28;20457;-75
2021/09/23 10:59:03;;;;;;;8.18;4.65;;;19.60;71.00;;;;;;5016576;28;20022;-75
2021/09/23 11:01:31;;;;;;;9.43;4.93;;;19.60;71.10;;;;;;5016261;28;20402;-75
2021/09/23 11:04:01;;;;;;;9.45;5.00;;;19.70;71.40;;;;;;5016318;28;20025;-75
2021/09/23 11:06:45;;;;;;;10.70;4.93;;;19.70;71.10;;;;;;5034137;28;20022;-75
2021/09/23 11:09:21;;;;;;;7.65;4.72;;;19.70;71.10;;;;;;5034148;28;20295;-75
2021/09/23 11:11:52;;;;;;;7.88;4.57;;;19.70;71.20;;;;;;5016097;28;20029;-76
2021/09/23 11:14:18;;;;;;;8.25;4.75;;;19.70;71.30;;;;;;5016196;28;20095;-75
2021/09/23 11:16:50;;;;;;;8.73;4.63;;;19.60;71.30;;;;;;5016193;28;20033;-75
2021/09/23 11:19:24;;;;;;;8.23;4.80;;;19.70;71.20;;;;;;5016016;28;20064;-75
2021/09/23 11:21:53;;;;;;;6.90;4.35;;;19.70;71.00;;;;;;5033519;28;20064;-76
2021/09/23 11:24:21;;;;;;;8.50;4.70;;;19.70;71.20;;;;;;5015996;28;20053;-76
2021/09/23 11:26:47;;;;;;;7.53;4.55;;;19.60;71.30;;;;;;5033919;28;20497;-75
2021/09/23 11:29:13;;;;;;;8.25;4.57;;;19.60;71.60;;;;;;5033637;28;20033;-76
2021/09/23 11:31:46;;;;;;;7.53;4.50;;;19.60;71.60;;;;;;5015219;28;20158;-76
2021/09/23 11:34:11;;;;;;;7.32;4.07;;;19.50;71.70;;;;;;5015463;28;20030;-75
2021/09/23 11:36:43;;;;;;;8.20;4.38;;;19.50;71.80;;;;;;5015845;28;20021;-76
2021/09/23 11:39:17;;;;;;;7.93;4.18;;;19.50;71.80;;;;;;5015751;28;20037;-76
2021/09/23 11:41:43;;;;;;;9.77;4.53;;;19.60;71.80;;;;;;5033197;28;20025;-76
2021/09/23 11:44:25;;;;;;;8.23;4.18;;;19.60;71.80;;;;;;5015664;28;20033;-76
2021/09/23 11:46:56;;;;;;;7.65;4.00;;;19.60;71.70;;;;;;5015602;28;20077;-75
2021/09/23 11:49:21;;;;;;;6.50;3.92;;;19.50;71.80;;;;;;5015538;28;20026;-75
2021/09/23 11:51:48;;;;;;;6.35;4.13;;;19.50;71.90;;;;;;5015260;28;20032;-75
2021/09/23 11:54:19;;;;;;;7.85;4.03;;;19.50;72.10;;;;;;5015485;28;20391;-76
2021/09/23 11:56:45;;;;;;;7.22;3.83;;;19.50;72.10;;;;;;5033322;28;20026;-76
2021/09/23 11:59:25;;;;;;;6.45;4.13;;;19.50;72.10;;;;;;5015565;28;20116;-75
2021/09/23 12:02:05;;;;;;;10.60;4.07;;;19.50;72.10;;;;;;5015334;28;20525;-74
2021/09/23 12:04:32;;;;;;;8.43;4.13;;;19.50;72.30;;;;;;5015306;28;20030;-74
2021/09/23 12:07:03;;;;;;;7.68;3.90;;;19.50;72.10;;;;;;5015351;28;20032;-74
2021/09/23 12:09:28;;;;;;;8.50;3.85;;;19.50;72.10;;;;;;5032955;28;20025;-75
2021/09/23 12:11:54;;;;;;;6.30;3.50;;;19.60;72.00;;;;;;5032605;28;20031;-73
2021/09/23 12:14:20;;;;;;;8.48;3.47;;;19.60;71.90;;;;;;5055840;22;20053;-75
2021/09/23 12:16:48;;;;;;;8.07;3.80;;;19.60;71.80;;;;;;5014517;28;20018;-75
2021/09/23 12:19:17;;;;;;;8.48;4.25;;;19.60;71.90;;;;;;5014116;28;20117;-75
2021/09/23 12:21:54;;;;;;;6.22;3.45;;;19.50;71.90;;;;;;5032585;28;20390;-75
2021/09/23 12:24:34;;;;;;;7.78;3.95;;;19.60;72.10;;;;;;5014558;28;20560;-74
2021/09/23 12:27:00;;;;;;;8.05;3.50;;;19.60;72.40;;;;;;5012856;28;20036;-73
2021/09/23 12:29:26;;;;;;;9.90;3.83;;;19.60;72.40;;;;;;5009413;28;20033;-75
2021/09/23 12:32:10;;;;;;;7.68;3.55;;;19.60;72.10;;;;;;5014514;28;20017;-75
2021/09/23 12:34:45;;;;;;;13.88;3.88;;;19.60;72.10;;;;;;5045128;28;20077;-75